Time;durP1;ratioP1;P1;durP2;ratioP2;P2;SDS_P1;SDS_P2;PMS_P1;PMS_P2;Temp;Humidity;BMP_temperature;BMP_pressure;BME280_temperature;BME280_humidity;BME280_pressure;Samples;Min_cycle;Max_cycle;Signal;HPM_P1;HPM_P2
2023/01/11 00:00:09;;;;;;;13.63;1.10;;;;;;;;;;6199108;23;20012;-42
2023/01/11 00:02:37;;;;;;;17.77;1.52;;;;;;;;;;6217199;23;20090;-43
2023/01/11 00:05:12;;;;;;;17.97;1.40;;;;;;;;;;6220840;23;20106;-44
2023/01/11 00:07:40;;;;;;;12.50;1.48;;;;;;;;;;6207818;23;20054;-42
2023/01/11 00:10:10;;;;;;;12.57;1.10;;;;;;;;;;6221022;23;20058;-42
2023/01/11 00:12:38;;;;;;;13.65;1.83;;;;;;;;;;6201201;23;20537;-41
2023/01/11 00:15:06;;;;;;;18.33;1.63;;;;;;;;;;6214013;23;20016;-44
2023/01/11 00:17:33;;;;;;;11.90;1.17;;;;;;;;;;6213442;23;20042;-42
2023/01/11 00:20:01;;;;;;;23.98;1.58;;;;;;;;;;6210195;23;20442;-43
2023/01/11 00:22:29;;;;;;;15.10;1.75;;;;;;;;;;6212272;23;20413;-43
2023/01/11 00:24:57;;;;;;;11.40;1.13;;;;;;;;;;6210137;23;20342;-43
2023/01/11 00:27:26;;;;;;;14.98;1.10;;;;;;;;;;6218963;23;20124;-44
2023/01/11 00:29:55;;;;;;;15.90;1.97;;;;;;;;;;6214988;22;20058;-42
2023/01/11 00:32:23;;;;;;;12.02;1.83;;;;;;;;;;6210389;23;20502;-42
2023/01/11 00:34:51;;;;;;;9.27;1.80;;;;;;;;;;6215868;23;20030;-43
2023/01/11 00:37:18;;;;;;;13.10;1.75;;;;;;;;;;6214427;23;20058;-42
2023/01/11 00:39:46;;;;;;;17.27;2.30;;;;;;;;;;6211971;23;20051;-44
2023/01/11 00:47:57;;;;;;;11.73;1.65;;;;;;;;;;6209796;23;20421;-45
2023/01/11 00:50:25;;;;;;;19.88;2.75;;;;;;;;;;6199587;23;20054;-43
2023/01/11 00:52:57;;;;;;;17.73;1.98;;;;;;;;;;6215152;23;20012;-42
2023/01/11 00:55:30;;;;;;;15.37;1.50;;;;;;;;;;6215535;22;20028;-45
2023/01/11 00:57:58;;;;;;;18.40;1.95;;;;;;;;;;6201753;23;20029;-42
2023/01/11 01:00:28;;;;;;;15.48;1.45;;;;;;;;;;6214659;23;20099;-42
2023/01/11 01:02:56;;;;;;;12.35;1.70;;;;;;;;;;6211780;23;20059;-42
2023/01/11 01:05:24;;;;;;;12.77;2.08;;;;;;;;;;6216042;23;20016;-43
2023/01/11 01:07:51;;;;;;;16.13;1.40;;;;;;;;;;6208415;23;20589;-42
2023/01/11 01:10:19;;;;;;;12.43;1.30;;;;;;;;;;6216677;23;20066;-43
2023/01/11 01:15:34;;;;;;;15.52;1.55;;;;;;;;;;6214697;23;20386;-41
2023/01/11 01:18:02;;;;;;;17.23;1.80;;;;;;;;;;6209786;23;20016;-41
2023/01/11 01:20:31;;;;;;;15.60;1.73;;;;;;;;;;6212122;23;20012;-42
2023/01/11 01:22:59;;;;;;;17.05;1.73;;;;;;;;;;6206114;23;20020;-42
2023/01/11 01:25:27;;;;;;;13.13;1.50;;;;;;;;;;6212907;23;20202;-41
2023/01/11 01:27:55;;;;;;;16.88;1.85;;;;;;;;;;6212882;23;20095;-42
2023/01/11 01:30:23;;;;;;;17.13;2.38;;;;;;;;;;6221602;23;20044;-41
2023/01/11 01:32:52;;;;;;;13.60;1.80;;;;;;;;;;6205518;23;20070;-44
2023/01/11 01:35:19;;;;;;;12.18;1.50;;;;;;;;;;6210924;23;20008;-43
2023/01/11 01:37:47;;;;;;;15.35;1.80;;;;;;;;;;6211209;23;20122;-43
2023/01/11 01:40:14;;;;;;;19.42;1.50;;;;;;;;;;6217302;23;20044;-42
2023/01/11 01:42:42;;;;;;;15.00;1.27;;;;;;;;;;6220043;23;20027;-42
2023/01/11 01:45:19;;;;;;;18.13;1.83;;;;;;;;;;6208063;23;20023;-43
2023/01/11 01:47:48;;;;;;;14.85;1.48;;;;;;;;;;6219304;23;20070;-42
2023/01/11 01:50:20;;;;;;;19.33;1.83;;;;;;;;;;6209802;23;20023;-41
2023/01/11 01:52:49;;;;;;;15.90;2.38;;;;;;;;;;6220392;23;20078;-44
2023/01/11 01:55:20;;;;;;;16.17;1.83;;;;;;;;;;6202592;23;20042;-43
2023/01/11 01:57:50;;;;;;;14.33;1.57;;;;;;;;;;6215739;23;20012;-42
2023/01/11 02:00:20;;;;;;;12.75;1.65;;;;;;;;;;6221181;22;20095;-45
2023/01/11 02:02:48;;;;;;;16.73;1.70;;;;;;;;;;6205950;23;20446;-44
2023/01/11 02:05:17;;;;;;;14.25;1.27;;;;;;;;;;6219656;23;20026;-43
2023/01/11 02:07:46;;;;;;;12.15;1.25;;;;;;;;;;6207618;23;20083;-42
2023/01/11 02:10:15;;;;;;;16.47;1.47;;;;;;;;;;6223820;23;20017;-44
2023/01/11 02:12:46;;;;;;;10.10;1.15;;;;;;;;;;6187501;23;20274;-44
2023/01/11 02:15:14;;;;;;;22.90;1.92;;;;;;;;;;6214598;23;20071;-43
2023/01/11 02:17:42;;;;;;;16.27;1.52;;;;;;;;;;6214689;23;20224;-41
2023/01/11 02:20:37;;;;;;;19.70;1.88;;;;;;;;;;6217392;23;20549;-41
2023/01/11 02:23:25;;;;;;;15.00;2.03;;;;;;;;;;6155267;22;20020;-42
2023/01/11 02:26:10;;;;;;;15.45;1.25;;;;;;;;;;6194473;22;20074;-42
2023/01/11 02:28:41;;;;;;;16.83;1.75;;;;;;;;;;6215275;23;20016;-43
2023/01/11 02:31:11;;;;;;;15.88;2.20;;;;;;;;;;6216874;23;20092;-43
2023/01/11 02:33:43;;;;;;;10.38;1.00;;;;;;;;;;6197202;23;20023;-42
2023/01/11 02:36:17;;;;;;;13.87;1.87;;;;;;;;;;6223410;23;20370;-42
2023/01/11 02:38:47;;;;;;;17.42;1.60;;;;;;;;;;6212264;23;20407;-42
2023/01/11 02:41:18;;;;;;;12.57;1.77;;;;;;;;;;6205075;23;20382;-45
2023/01/11 02:46:41;;;;;;;18.60;2.42;;;;;;;;;;6192300;23;20054;-43
2023/01/11 02:49:11;;;;;;;8.27;0.77;;;;;;;;;;6204364;23;20063;-42
2023/01/11 02:51:41;;;;;;;11.32;1.13;;;;;;;;;;6221359;23;20035;-42
2023/01/11 02:54:09;;;;;;;13.57;1.40;;;;;;;;;;6220446;23;20070;-42
2023/01/11 02:56:38;;;;;;;23.23;1.83;;;;;;;;;;6211255;23;20019;-41
2023/01/11 02:59:08;;;;;;;13.32;1.33;;;;;;;;;;6220064;23;20046;-43
2023/01/11 03:01:43;;;;;;;11.30;1.30;;;;;;;;;;6213713;23;20055;-43
2023/01/11 03:04:21;;;;;;;18.30;1.95;;;;;;;;;;6211716;23;20016;-42
2023/01/11 03:06:50;;;;;;;20.85;1.75;;;;;;;;;;6207905;23;20078;-42
2023/01/11 03:09:21;;;;;;;21.05;1.85;;;;;;;;;;6213687;23;20478;-43
2023/01/11 03:14:51;;;;;;;18.43;1.93;;;;;;;;;;6214593;23;20451;-42
2023/01/11 03:17:25;;;;;;;14.23;1.63;;;;;;;;;;6215250;23;20039;-42
2023/01/11 03:19:54;;;;;;;11.55;1.27;;;;;;;;;;6217290;23;20435;-42
2023/01/11 03:22:25;;;;;;;18.33;1.45;;;;;;;;;;6211530;23;20035;-41
2023/01/11 03:24:57;;;;;;;20.75;1.45;;;;;;;;;;6213687;23;20083;-44
2023/01/11 03:27:31;;;;;;;13.53;1.07;;;;;;;;;;6209574;23;20048;-41
2023/01/11 03:30:03;;;;;;;13.23;1.17;;;;;;;;;;6202164;23;20455;-42
2023/01/11 03:32:34;;;;;;;18.73;2.20;;;;;;;;;;6208928;23;20016;-43
2023/01/11 03:35:06;;;;;;;14.18;2.90;;;;;;;;;;6209352;23;20254;-42
2023/01/11 03:37:36;;;;;;;22.83;1.67;;;;;;;;;;6213486;23;20059;-42
2023/01/11 03:40:08;;;;;;;14.63;1.43;;;;;;;;;;6217620;23;20035;-42
2023/01/11 03:43:09;;;;;;;15.68;1.48;;;;;;;;;;6215553;23;20110;-42
2023/01/11 03:45:28;;;;;;;14.38;1.60;;;;;;;;;;6209287;23;20120;-42
2023/01/11 03:47:56;;;;;;;18.83;1.77;;;;;;;;;;6208847;23;20028;-47
2023/01/11 03:50:30;;;;;;;19.35;2.03;;;;;;;;;;6222635;23;20096;-42
2023/01/11 03:53:04;;;;;;;15.40;1.87;;;;;;;;;;6224321;23;20016;-42
2023/01/11 03:55:34;;;;;;;19.63;2.03;;;;;;;;;;6217278;23;20151;-41
2023/01/11 03:58:02;;;;;;;17.27;1.42;;;;;;;;;;6209588;23;20406;-42
2023/01/11 04:00:32;;;;;;;14.88;1.77;;;;;;;;;;6217731;23;20019;-42
2023/01/11 04:03:00;;;;;;;21.85;2.60;;;;;;;;;;6206691;23;20419;-42
2023/01/11 04:05:28;;;;;;;15.50;1.33;;;;;;;;;;6207429;23;20441;-43
2023/01/11 04:07:55;;;;;;;12.75;2.05;;;;;;;;;;6206874;22;20023;-43
2023/01/11 04:10:23;;;;;;;13.38;1.52;;;;;;;;;;6219578;23;20020;-43
2023/01/11 04:12:51;;;;;;;18.25;1.45;;;;;;;;;;6205897;23;20019;-43
2023/01/11 04:15:18;;;;;;;11.27;1.63;;;;;;;;;;6219920;23;20016;-42
2023/01/11 04:17:47;;;;;;;11.60;1.33;;;;;;;;;;6212977;23;20074;-43
2023/01/11 04:20:15;;;;;;;19.73;1.58;;;;;;;;;;6213480;23;20143;-43
2023/01/11 04:22:42;;;;;;;7.90;0.93;;;;;;;;;;6212474;22;20088;-43
2023/01/11 04:25:10;;;;;;;9.98;1.52;;;;;;;;;;6219555;23;20016;-42
2023/01/11 04:27:38;;;;;;;12.32;1.58;;;;;;;;;;6207650;23;20024;-42
2023/01/11 04:30:06;;;;;;;16.07;1.73;;;;;;;;;;6213031;23;20040;-41
2023/01/11 04:32:33;;;;;;;8.05;1.67;;;;;;;;;;6207097;23;20820;-43
2023/01/11 04:35:02;;;;;;;13.52;1.27;;;;;;;;;;6219684;23;20039;-42
2023/01/11 04:37:30;;;;;;;15.55;1.30;;;;;;;;;;6209785;23;20406;-41
2023/01/11 04:39:58;;;;;;;17.25;2.10;;;;;;;;;;6218769;23;20016;-43
2023/01/11 04:42:24;;;;;;;12.77;1.80;;;;;;;;;;6211270;23;20020;-42
2023/01/11 04:44:52;;;;;;;9.98;1.02;;;;;;;;;;6198183;23;20212;-42
2023/01/11 04:47:20;;;;;;;12.43;1.45;;;;;;;;;;6214764;23;20047;-44
2023/01/11 04:49:48;;;;;;;10.77;0.93;;;;;;;;;;6207428;23;20043;-45
2023/01/11 04:52:18;;;;;;;6.00;0.75;;;;;;;;;;6216076;23;20447;-43
2023/01/11 04:54:51;;;;;;;7.90;0.83;;;;;;;;;;6203203;22;20016;-42
2023/01/11 04:57:19;;;;;;;6.75;0.60;;;;;;;;;;6218776;23;20486;-41
2023/01/11 04:59:46;;;;;;;5.95;0.47;;;;;;;;;;6207212;23;20054;-42
2023/01/11 05:02:14;;;;;;;11.05;0.80;;;;;;;;;;6212464;23;20412;-42
2023/01/11 05:04:41;;;;;;;6.13;0.70;;;;;;;;;;6209696;23;20127;-44
2023/01/11 05:07:09;;;;;;;6.43;0.83;;;;;;;;;;6218845;23;20016;-42
2023/01/11 05:09:39;;;;;;;8.75;0.90;;;;;;;;;;6205251;23;20443;-43
2023/01/11 05:12:07;;;;;;;9.63;0.80;;;;;;;;;;6216904;23;20512;-42
2023/01/11 05:14:34;;;;;;;12.32;0.95;;;;;;;;;;6209230;23;20083;-43
2023/01/11 05:17:02;;;;;;;6.60;0.40;;;;;;;;;;6214634;23;20119;-41
2023/01/11 05:19:29;;;;;;;8.07;0.50;;;;;;;;;;6211123;23;20455;-41
2023/01/11 05:21:57;;;;;;;4.90;0.47;;;;;;;;;;6217971;23;20416;-43
2023/01/11 05:24:25;;;;;;;9.95;1.00;;;;;;;;;;6211549;23;20027;-43
2023/01/11 05:26:55;;;;;;;8.18;0.75;;;;;;;;;;6214043;23;20099;-41
2023/01/11 05:29:23;;;;;;;7.38;0.75;;;;;;;;;;6211365;23;20012;-41
2023/01/11 05:31:50;;;;;;;6.37;0.80;;;;;;;;;;6215234;23;20044;-42
2023/01/11 05:34:18;;;;;;;9.15;0.70;;;;;;;;;;6212962;23;20207;-43
2023/01/11 05:36:46;;;;;;;5.55;0.82;;;;;;;;;;6216470;23;20016;-41
2023/01/11 05:39:15;;;;;;;10.95;1.45;;;;;;;;;;6218775;23;20016;-42
2023/01/11 05:41:42;;;;;;;7.70;0.52;;;;;;;;;;6216832;23;20087;-41
2023/01/11 05:46:57;;;;;;;6.97;0.40;;;;;;;;;;6207502;23;20043;-41
2023/01/11 05:49:25;;;;;;;8.63;0.50;;;;;;;;;;6214610;23;20401;-42
2023/01/11 05:51:53;;;;;;;7.68;0.52;;;;;;;;;;6210512;23;20020;-42
2023/01/11 05:54:21;;;;;;;7.85;0.60;;;;;;;;;;6213621;23;20091;-44
2023/01/11 05:56:48;;;;;;;3.87;0.90;;;;;;;;;;6198199;23;20067;-42
2023/01/11 05:59:17;;;;;;;6.70;0.70;;;;;;;;;;6219403;23;20091;-44
2023/01/11 06:01:45;;;;;;;4.80;0.40;;;;;;;;;;6210370;23;20107;-42
2023/01/11 06:04:13;;;;;;;9.82;0.77;;;;;;;;;;6216251;23;20016;-44
2023/01/11 06:06:41;;;;;;;5.38;0.40;;;;;;;;;;6198265;23;20016;-43
2023/01/11 06:09:10;;;;;;;6.47;0.77;;;;;;;;;;6214121;23;20030;-43
2023/01/11 06:11:38;;;;;;;8.13;0.60;;;;;;;;;;6219483;23;20020;-44
2023/01/11 06:14:05;;;;;;;9.95;0.95;;;;;;;;;;6210064;23;20043;-41
2023/01/11 06:16:34;;;;;;;7.00;0.50;;;;;;;;;;6219714;23;20016;-42
2023/01/11 06:19:02;;;;;;;6.22;0.60;;;;;;;;;;6210816;23;20518;-42
2023/01/11 06:21:29;;;;;;;5.83;0.30;;;;;;;;;;6219057;23;20123;-42
2023/01/11 06:23:57;;;;;;;6.88;0.55;;;;;;;;;;6208150;23;20020;-44
2023/01/11 06:26:25;;;;;;;7.43;0.50;;;;;;;;;;6215907;23;20020;-43
2023/01/11 06:28:53;;;;;;;3.05;0.28;;;;;;;;;;6211008;23;20048;-43
2023/01/11 06:31:21;;;;;;;8.38;0.40;;;;;;;;;;6207147;23;20023;-42
2023/01/11 06:33:50;;;;;;;7.57;0.50;;;;;;;;;;6216575;23;20111;-42
2023/01/11 06:36:17;;;;;;;4.15;0.45;;;;;;;;;;6209394;23;20012;-42
2023/01/11 06:38:45;;;;;;;5.55;0.60;;;;;;;;;;6209254;23;20329;-42
2023/01/11 06:41:13;;;;;;;7.38;0.57;;;;;;;;;;6213272;23;20016;-43
2023/01/11 06:43:40;;;;;;;4.65;0.30;;;;;;;;;;6210363;23;20036;-43
2023/01/11 06:46:12;;;;;;;10.60;0.60;;;;;;;;;;6224765;23;20139;-46
2023/01/11 06:48:39;;;;;;;4.80;0.45;;;;;;;;;;6193462;23;20142;-42
2023/01/11 06:51:18;;;;;;;6.97;0.40;;;;;;;;;;6222985;23;20043;-42
2023/01/11 06:53:46;;;;;;;8.70;0.52;;;;;;;;;;6218387;23;20008;-41
2023/01/11 06:56:16;;;;;;;4.53;0.40;;;;;;;;;;6214974;23;20016;-43
2023/01/11 06:58:45;;;;;;;5.83;0.40;;;;;;;;;;6218715;22;20074;-42
2023/01/11 07:01:15;;;;;;;5.13;0.43;;;;;;;;;;6215138;23;20329;-44
2023/01/11 07:03:44;;;;;;;3.42;0.30;;;;;;;;;;6214666;23;20093;-44
2023/01/11 07:06:13;;;;;;;8.70;0.90;;;;;;;;;;6205852;23;20024;-42
2023/01/11 07:08:41;;;;;;;7.88;0.50;;;;;;;;;;6217238;23;20367;-41
2023/01/11 07:11:09;;;;;;;9.17;0.60;;;;;;;;;;6213969;23;20035;-44
2023/01/11 07:13:37;;;;;;;7.00;0.68;;;;;;;;;;6220567;23;20099;-43
2023/01/11 07:16:04;;;;;;;7.40;0.82;;;;;;;;;;6210937;23;20012;-42
2023/01/11 07:18:32;;;;;;;12.15;0.50;;;;;;;;;;6218925;23;20032;-42
2023/01/11 07:21:01;;;;;;;11.68;0.60;;;;;;;;;;6213030;23;20032;-41
2023/01/11 07:23:30;;;;;;;9.90;0.70;;;;;;;;;;6211249;23;20081;-42
2023/01/11 07:25:58;;;;;;;8.73;0.40;;;;;;;;;;6218717;23;20020;-41
2023/01/11 07:28:27;;;;;;;6.65;0.65;;;;;;;;;;6215256;23;20093;-42
2023/01/11 07:30:55;;;;;;;6.03;0.63;;;;;;;;;;6208889;23;20016;-43
2023/01/11 07:33:26;;;;;;;6.28;0.43;;;;;;;;;;6210256;23;20023;-41
2023/01/11 07:35:53;;;;;;;10.20;0.97;;;;;;;;;;6215085;23;20210;-41
2023/01/11 07:38:21;;;;;;;8.00;0.40;;;;;;;;;;6221360;23;20051;-43
2023/01/11 07:40:50;;;;;;;9.02;0.80;;;;;;;;;;6208409;23;20458;-41
2023/01/11 07:43:18;;;;;;;12.13;0.77;;;;;;;;;;6212780;23;20078;-42
2023/01/11 07:45:47;;;;;;;9.23;0.73;;;;;;;;;;6218454;23;20016;-42
2023/01/11 07:48:19;;;;;;;9.13;0.63;;;;;;;;;;6211431;23;20027;-44
2023/01/11 07:50:47;;;;;;;7.30;0.45;;;;;;;;;;6218941;23;20035;-41
2023/01/11 07:53:15;;;;;;;13.15;0.60;;;;;;;;;;6204003;23;20062;-41
2023/01/11 07:55:43;;;;;;;6.32;0.47;;;;;;;;;;6222421;23;20455;-41
2023/01/11 07:58:12;;;;;;;8.52;0.50;;;;;;;;;;6209853;23;20375;-42
2023/01/11 08:00:40;;;;;;;9.40;0.50;;;;;;;;;;6220968;23;20016;-41
2023/01/11 08:03:08;;;;;;;12.63;1.27;;;;;;;;;;6201879;23;20066;-42
2023/01/11 08:05:36;;;;;;;11.30;0.80;;;;;;;;;;6218683;23;20020;-42
2023/01/11 08:08:04;;;;;;;10.07;0.68;;;;;;;;;;6209064;23;20020;-42
2023/01/11 08:10:32;;;;;;;12.00;1.55;;;;;;;;;;6221226;23;20091;-41
2023/01/11 08:15:48;;;;;;;14.90;1.02;;;;;;;;;;6199459;23;20095;-44
2023/01/11 08:18:16;;;;;;;10.57;0.77;;;;;;;;;;6213283;23;20039;-42
2023/01/11 08:20:44;;;;;;;8.20;0.60;;;;;;;;;;6213198;23;20455;-42
2023/01/11 08:23:12;;;;;;;12.88;0.75;;;;;;;;;;6212102;23;20016;-41
2023/01/11 08:25:39;;;;;;;10.00;1.13;;;;;;;;;;6207621;23;20040;-42
2023/01/11 08:28:07;;;;;;;10.48;0.90;;;;;;;;;;6216761;23;20016;-42
2023/01/11 08:30:36;;;;;;;7.55;0.63;;;;;;;;;;6218578;23;20485;-42
2023/01/11 08:33:05;;;;;;;5.75;0.70;;;;;;;;;;6214792;23;20246;-43
2023/01/11 08:35:36;;;;;;;11.77;0.70;;;;;;;;;;6212901;23;20016;-42
2023/01/11 08:38:04;;;;;;;9.03;0.83;;;;;;;;;;6224243;23;20096;-44
2023/01/11 08:40:32;;;;;;;11.43;1.25;;;;;;;;;;6205624;23;20012;-42
2023/01/11 08:42:59;;;;;;;14.68;1.20;;;;;;;;;;6225932;23;20012;-42
2023/01/11 08:45:35;;;;;;;14.48;0.85;;;;;;;;;;6198743;23;20023;-41
2023/01/11 08:48:08;;;;;;;9.88;0.80;;;;;;;;;;6217405;23;20074;-44
2023/01/11 08:50:36;;;;;;;16.43;0.90;;;;;;;;;;6218145;23;20448;-41
2023/01/11 08:53:06;;;;;;;12.90;1.00;;;;;;;;;;6203066;23;20020;-41
2023/01/11 08:55:40;;;;;;;11.68;0.57;;;;;;;;;;6219030;23;20016;-43
2023/01/11 08:58:08;;;;;;;16.25;1.17;;;;;;;;;;6204729;22;20090;-41
2023/01/11 09:00:36;;;;;;;9.05;0.82;;;;;;;;;;6212751;22;20038;-42
2023/01/11 09:03:03;;;;;;;8.50;0.93;;;;;;;;;;6210015;23;20040;-42
2023/01/11 09:05:32;;;;;;;12.10;0.80;;;;;;;;;;6212538;23;20016;-41
2023/01/11 09:08:00;;;;;;;15.75;0.98;;;;;;;;;;6207142;23;20047;-41
2023/01/11 09:10:28;;;;;;;15.02;1.20;;;;;;;;;;6217948;23;20020;-41
2023/01/11 09:12:56;;;;;;;10.07;0.80;;;;;;;;;;6207663;23;20012;-44
2023/01/11 09:15:24;;;;;;;12.97;1.17;;;;;;;;;;6213730;23;20039;-42
2023/01/11 09:17:52;;;;;;;12.05;1.42;;;;;;;;;;6206420;23;20008;-41
2023/01/11 09:20:20;;;;;;;11.80;1.10;;;;;;;;;;6166166;23;20739;-42
2023/01/11 09:22:50;;;;;;;14.38;1.75;;;;;;;;;;6186083;23;20463;-44
2023/01/11 09:25:19;;;;;;;15.68;1.63;;;;;;;;;;6191632;23;20016;-42
2023/01/11 09:27:47;;;;;;;9.53;0.83;;;;;;;;;;6177152;23;20478;-41
2023/01/11 09:30:16;;;;;;;14.48;1.33;;;;;;;;;;6182883;23;20549;-43
2023/01/11 09:32:44;;;;;;;9.07;0.80;;;;;;;;;;6186008;23;20016;-42
2023/01/11 09:35:14;;;;;;;8.30;1.10;;;;;;;;;;6199435;23;20538;-42
2023/01/11 09:37:44;;;;;;;7.47;0.75;;;;;;;;;;6184339;23;20022;-43
2023/01/11 09:40:17;;;;;;;9.93;1.10;;;;;;;;;;6191348;23;20112;-42
2023/01/11 09:42:48;;;;;;;13.20;1.23;;;;;;;;;;6194456;23;20016;-53
2023/01/11 09:45:18;;;;;;;15.60;1.30;;;;;;;;;;6195306;22;20091;-43
2023/01/11 09:47:49;;;;;;;10.15;0.90;;;;;;;;;;6191432;23;20030;-42
2023/01/11 09:50:20;;;;;;;11.68;0.90;;;;;;;;;;6188929;22;20020;-42
2023/01/11 09:52:51;;;;;;;12.57;1.50;;;;;;;;;;6194280;23;20095;-43
2023/01/11 09:55:24;;;;;;;12.43;1.02;;;;;;;;;;6189181;23;20813;-41
2023/01/11 09:57:58;;;;;;;8.95;0.80;;;;;;;;;;6197532;23;20047;-42
2023/01/11 10:00:28;;;;;;;9.40;0.65;;;;;;;;;;6182824;22;20495;-43
2023/01/11 10:03:13;;;;;;;8.43;0.80;;;;;;;;;;6194074;23;20131;-42
2023/01/11 10:05:50;;;;;;;8.77;1.80;;;;;;;;;;6187981;23;20074;-42
2023/01/11 10:08:26;;;;;;;4.18;1.05;;;;;;;;;;6192943;23;20436;-41
2023/01/11 10:11:26;;;;;;;10.55;0.60;;;;;;;;;;6199739;23;20122;-42
2023/01/11 10:14:21;;;;;;;5.38;0.43;;;;;;;;;;6196570;23;20023;-42
2023/01/11 10:17:16;;;;;;;4.53;0.38;;;;;;;;;;6202781;23;20020;-42
2023/01/11 10:20:10;;;;;;;3.87;0.67;;;;;;;;;;6188042;22;20043;-43
2023/01/11 10:22:43;;;;;;;8.90;0.65;;;;;;;;;;6201630;23;20016;-42
2023/01/11 10:25:17;;;;;;;7.00;0.50;;;;;;;;;;6210165;22;20447;-41
2023/01/11 10:27:52;;;;;;;6.75;0.82;;;;;;;;;;6210739;23;20016;-41
2023/01/11 10:30:38;;;;;;;11.63;0.80;;;;;;;;;;6215484;23;20028;-43
2023/01/11 10:33:23;;;;;;;8.83;0.80;;;;;;;;;;6214696;23;20008;-44
2023/01/11 10:36:09;;;;;;;9.20;0.80;;;;;;;;;;6208308;23;20435;-42
2023/01/11 10:38:53;;;;;;;8.30;0.50;;;;;;;;;;6211138;23;20020;-42
2023/01/11 10:41:32;;;;;;;9.52;0.68;;;;;;;;;;6215765;23;20035;-43
2023/01/11 10:44:04;;;;;;;10.55;0.98;;;;;;;;;;6213721;22;20023;-41
2023/01/11 10:46:33;;;;;;;9.83;1.00;;;;;;;;;;6203903;22;20918;-43
2023/01/11 10:49:10;;;;;;;9.27;0.63;;;;;;;;;;6217587;23;20088;-41
2023/01/11 10:51:42;;;;;;;6.18;0.60;;;;;;;;;;6207369;23;20023;-41
2023/01/11 10:54:15;;;;;;;10.02;1.20;;;;;;;;;;6218804;23;20022;-41
2023/01/11 10:56:50;;;;;;;5.80;0.50;;;;;;;;;;6211629;23;20016;-41
2023/01/11 10:59:47;;;;;;;8.93;0.90;;;;;;;;;;6215847;23;20022;-42
2023/01/11 11:02:24;;;;;;;14.65;1.10;;;;;;;;;;6193546;22;20023;-43
2023/01/11 11:05:07;;;;;;;7.30;0.70;;;;;;;;;;6215219;23;20022;-42
2023/01/11 11:07:38;;;;;;;6.68;0.77;;;;;;;;;;6203274;23;20448;-45
2023/01/11 11:10:10;;;;;;;8.75;0.80;;;;;;;;;;6215972;23;20019;-42
2023/01/11 11:12:42;;;;;;;7.07;1.27;;;;;;;;;;6217822;22;20099;-42
2023/01/11 11:15:12;;;;;;;7.13;0.95;;;;;;;;;;6219732;23;20043;-42
2023/01/11 11:17:45;;;;;;;9.18;1.00;;;;;;;;;;6211944;23;20074;-44
2023/01/11 11:20:13;;;;;;;10.20;1.15;;;;;;;;;;6210301;23;20519;-43
2023/01/11 11:22:41;;;;;;;10.95;1.17;;;;;;;;;;6213130;23;20103;-42
2023/01/11 11:25:14;;;;;;;8.27;0.73;;;;;;;;;;6214379;23;20016;-41
2023/01/11 11:27:44;;;;;;;10.80;0.75;;;;;;;;;;6211365;23;20051;-41
2023/01/11 11:30:12;;;;;;;8.90;0.63;;;;;;;;;;6211400;23;20019;-42
2023/01/11 11:32:44;;;;;;;11.07;0.80;;;;;;;;;;6216319;23;20021;-41
2023/01/11 11:35:29;;;;;;;13.88;1.00;;;;;;;;;;6205913;23;20099;-41
2023/01/11 11:37:56;;;;;;;6.63;0.43;;;;;;;;;;6212284;23;20625;-42
2023/01/11 11:40:30;;;;;;;9.23;0.50;;;;;;;;;;6211670;23;20463;-42
2023/01/11 11:43:11;;;;;;;13.02;0.82;;;;;;;;;;6221053;23;20050;-41
2023/01/11 11:45:49;;;;;;;9.23;0.80;;;;;;;;;;6211261;23;20458;-42
2023/01/11 11:48:18;;;;;;;5.30;0.32;;;;;;;;;;6208719;22;20509;-42
2023/01/11 11:50:47;;;;;;;10.00;0.97;;;;;;;;;;6212150;22;20447;-41
2023/01/11 11:53:26;;;;;;;6.03;0.60;;;;;;;;;;6207136;23;20027;-41
2023/01/11 11:55:54;;;;;;;11.75;0.95;;;;;;;;;;6214397;23;20091;-41
2023/01/11 11:58:23;;;;;;;8.50;0.43;;;;;;;;;;6212385;23;20098;-45
2023/01/11 12:00:52;;;;;;;5.65;0.75;;;;;;;;;;6214092;23;20016;-42
2023/01/11 12:03:23;;;;;;;7.93;0.80;;;;;;;;;;6213885;23;20530;-42
2023/01/11 12:05:56;;;;;;;7.15;0.70;;;;;;;;;;6217946;23;20043;-42
2023/01/11 12:08:24;;;;;;;5.35;0.60;;;;;;;;;;6213644;23;20458;-42
2023/01/11 12:10:56;;;;;;;8.02;0.60;;;;;;;;;;6212139;23;20062;-43
2023/01/11 12:13:28;;;;;;;8.20;0.80;;;;;;;;;;6215909;23;20451;-43
2023/01/11 12:15:57;;;;;;;8.40;1.20;;;;;;;;;;6213713;23;20336;-41
2023/01/11 12:18:30;;;;;;;8.77;0.95;;;;;;;;;;6212544;23;20371;-43
2023/01/11 12:21:08;;;;;;;10.05;1.08;;;;;;;;;;6206948;23;20497;-43
2023/01/11 12:23:35;;;;;;;10.55;1.15;;;;;;;;;;6199465;23;20066;-42
2023/01/11 12:26:08;;;;;;;5.30;0.57;;;;;;;;;;6195176;23;20040;-42
2023/01/11 12:28:45;;;;;;;6.53;0.90;;;;;;;;;;6213424;23;20051;-42
2023/01/11 12:31:18;;;;;;;10.75;0.82;;;;;;;;;;6213085;23;20086;-43
2023/01/11 12:33:51;;;;;;;5.28;0.80;;;;;;;;;;6220877;23;20012;-46
2023/01/11 12:36:22;;;;;;;6.18;0.95;;;;;;;;;;6208833;23;20051;-42
2023/01/11 12:38:54;;;;;;;9.05;0.75;;;;;;;;;;6209778;23;20388;-43
2023/01/11 12:41:46;;;;;;;12.43;0.90;;;;;;;;;;6217315;23;20723;-42
2023/01/11 12:44:17;;;;;;;9.32;0.55;;;;;;;;;;6215405;23;20015;-43
2023/01/11 12:46:53;;;;;;;6.53;0.60;;;;;;;;;;6205423;23;20116;-44
2023/01/11 12:49:34;;;;;;;4.50;0.40;;;;;;;;;;6210644;23;20058;-47
2023/01/11 12:52:10;;;;;;;7.53;1.00;;;;;;;;;;6213990;23;20512;-44
2023/01/11 12:54:51;;;;;;;9.27;0.57;;;;;;;;;;6211783;23;20059;-41
2023/01/11 12:57:26;;;;;;;7.03;0.40;;;;;;;;;;6197756;23;20387;-43
2023/01/11 13:00:08;;;;;;;12.70;0.75;;;;;;;;;;6209663;23;20063;-42
2023/01/11 13:02:55;;;;;;;6.80;1.05;;;;;;;;;;6206982;23;20016;-48
2023/01/11 13:05:26;;;;;;;5.75;0.55;;;;;;;;;;6139636;22;20043;-42
2023/01/11 13:08:00;;;;;;;3.77;0.57;;;;;;;;;;6208242;23;20042;-42
2023/01/11 13:10:33;;;;;;;7.85;0.70;;;;;;;;;;6203883;22;20746;-42
2023/01/11 13:13:04;;;;;;;4.45;0.70;;;;;;;;;;6205560;23;20024;-42
2023/01/11 13:15:40;;;;;;;4.22;0.40;;;;;;;;;;6210044;22;20043;-42
2023/01/11 13:18:12;;;;;;;4.65;0.40;;;;;;;;;;6202968;23;20066;-43
2023/01/11 13:20:44;;;;;;;4.37;0.33;;;;;;;;;;6216332;23;20585;-43
2023/01/11 13:23:33;;;;;;;3.75;0.20;;;;;;;;;;6211104;23;20065;-42
2023/01/11 13:26:05;;;;;;;4.45;0.20;;;;;;;;;;6213204;23;20039;-42
2023/01/11 13:28:35;;;;;;;2.95;0.40;;;;;;;;;;6218222;23;20023;-43
2023/01/11 13:31:04;;;;;;;3.95;0.40;;;;;;;;;;6199382;23;20058;-43
2023/01/11 13:33:32;;;;;;;4.83;0.20;;;;;;;;;;6218786;22;20022;-42
2023/01/11 13:36:04;;;;;;;3.90;0.40;;;;;;;;;;6203736;23;20059;-44
2023/01/11 13:38:44;;;;;;;5.72;0.70;;;;;;;;;;6211076;23;20355;-42
2023/01/11 13:41:16;;;;;;;4.10;0.40;;;;;;;;;;6208727;23;20027;-44
2023/01/11 13:43:45;;;;;;;5.85;0.60;;;;;;;;;;6213962;23;20596;-42
2023/01/11 13:46:15;;;;;;;5.07;0.37;;;;;;;;;;6223119;23;20012;-44
2023/01/11 13:48:46;;;;;;;3.05;0.30;;;;;;;;;;6203783;23;21001;-43
2023/01/11 13:51:18;;;;;;;6.70;0.63;;;;;;;;;;6211098;23;20012;-43
2023/01/11 13:53:51;;;;;;;6.18;0.47;;;;;;;;;;6202653;23;20475;-42
2023/01/11 13:56:21;;;;;;;5.70;0.50;;;;;;;;;;6207665;23;20008;-40
2023/01/11 13:58:51;;;;;;;6.10;0.53;;;;;;;;;;6212785;23;20039;-41
2023/01/11 14:01:20;;;;;;;6.90;0.80;;;;;;;;;;6206505;23;20362;-42
2023/01/11 14:03:51;;;;;;;12.50;0.93;;;;;;;;;;6203352;23;20288;-42
2023/01/11 14:06:26;;;;;;;5.97;0.68;;;;;;;;;;6202089;23;20261;-41
2023/01/11 14:09:02;;;;;;;10.07;0.70;;;;;;;;;;6221043;23;20428;-42
2023/01/11 14:11:35;;;;;;;11.10;1.17;;;;;;;;;;6204579;23;20012;-42
2023/01/11 14:14:17;;;;;;;10.07;0.93;;;;;;;;;;6220635;23;20062;-43
2023/01/11 14:16:52;;;;;;;14.60;0.90;;;;;;;;;;6218694;23;20053;-44
2023/01/11 14:19:23;;;;;;;10.55;0.68;;;;;;;;;;6211023;23;20447;-43
2023/01/11 14:22:02;;;;;;;20.15;1.10;;;;;;;;;;6212797;23;20412;-42
2023/01/11 14:24:31;;;;;;;6.57;1.00;;;;;;;;;;6206474;23;20099;-42
2023/01/11 14:27:19;;;;;;;5.28;0.35;;;;;;;;;;6212207;23;20372;-46
2023/01/11 14:29:57;;;;;;;3.97;0.50;;;;;;;;;;6215115;23;20425;-42
2023/01/11 14:32:37;;;;;;;10.55;0.40;;;;;;;;;;6207939;23;20034;-43
2023/01/11 14:35:23;;;;;;;7.32;0.40;;;;;;;;;;6190078;23;20016;-43
2023/01/11 14:38:06;;;;;;;7.63;0.40;;;;;;;;;;6213061;23;20084;-42
2023/01/11 14:40:40;;;;;;;3.50;0.68;;;;;;;;;;6193524;23;20022;-42
2023/01/11 14:43:22;;;;;;;5.25;0.55;;;;;;;;;;6214781;23;20087;-42
2023/01/11 14:45:57;;;;;;;9.52;0.70;;;;;;;;;;6204172;22;20074;-43
2023/01/11 14:48:29;;;;;;;5.25;0.40;;;;;;;;;;6204174;23;20016;-43
2023/01/11 14:51:06;;;;;;;4.90;0.40;;;;;;;;;;6205489;23;20091;-45
2023/01/11 14:53:37;;;;;;;7.32;0.50;;;;;;;;;;6145647;23;20017;-42
2023/01/11 14:56:26;;;;;;;4.07;0.30;;;;;;;;;;6152148;23;20442;-43
2023/01/11 14:59:01;;;;;;;4.45;0.35;;;;;;;;;;6201932;23;20493;-43
2023/01/11 15:01:29;;;;;;;10.18;0.80;;;;;;;;;;6207903;23;20056;-42
2023/01/11 15:03:59;;;;;;;11.23;0.87;;;;;;;;;;6216113;23;20343;-41
2023/01/11 15:06:30;;;;;;;3.88;0.30;;;;;;;;;;6206452;23;20074;-44
2023/01/11 15:08:59;;;;;;;5.93;1.17;;;;;;;;;;6190282;23;20051;-43
2023/01/11 15:11:32;;;;;;;7.10;0.63;;;;;;;;;;6204982;23;20048;-42
2023/01/11 15:14:01;;;;;;;5.95;0.50;;;;;;;;;;6219749;23;20130;-42
2023/01/11 15:19:24;;;;;;;6.03;0.60;;;;;;;;;;6214211;23;20017;-43
2023/01/11 15:21:54;;;;;;;7.60;0.45;;;;;;;;;;6216446;23;20023;-42